Time;durP1;ratioP1;P1;durP2;ratioP2;P2;SDS_P1;SDS_P2;PMS_P1;PMS_P2;Temp;Humidity;BMP_temperature;BMP_pressure;BME280_temperature;BME280_humidity;BME280_pressure;Samples;Min_cycle;Max_cycle;Signal;HPM_P1;HPM_P2
2022/12/03 00:00:11;;;;;;;11.30;7.87;;;;;;;1.87;100.00;95523.78;5013856;28;20187;-80
2022/12/03 00:02:36;;;;;;;9.47;7.10;;;;;;;1.87;100.00;95527.16;4997253;28;20253;-79
2022/12/03 00:05:02;;;;;;;16.77;7.77;;;;;;;1.83;100.00;95527.44;5013390;28;20677;-80
2022/12/03 00:07:27;;;;;;;16.47;7.77;;;;;;;1.80;100.00;95523.31;5015639;28;20246;-79
2022/12/03 00:09:52;;;;;;;47.30;9.77;;;;;;;1.85;100.00;95528.16;5030432;28;20198;-79
2022/12/03 00:12:18;;;;;;;10.03;6.93;;;;;;;1.90;100.00;95529.53;5029297;28;20194;-80
2022/12/03 00:14:43;;;;;;;28.97;8.23;;;;;;;1.82;99.92;95531.72;5015261;28;20222;-79
2022/12/03 00:17:08;;;;;;;25.53;8.43;;;;;;;1.87;100.00;95524.59;5014439;28;20191;-79
2022/12/03 00:19:33;;;;;;;11.00;7.17;;;;;;;1.90;100.00;95532.09;5013896;28;20191;-80
2022/12/03 00:21:59;;;;;;;12.23;8.13;;;;;;;1.87;100.00;95532.28;5014011;28;20187;-80
2022/12/03 00:24:24;;;;;;;36.67;9.80;;;;;;;1.85;100.00;95525.59;5013620;28;20215;-79
2022/12/03 00:26:49;;;;;;;58.43;11.57;;;;;;;1.83;100.00;95535.94;5029250;28;20183;-79
2022/12/03 00:29:15;;;;;;;11.83;8.60;;;;;;;1.90;100.00;95524.41;5030474;28;20187;-79
2022/12/03 00:31:41;;;;;;;12.97;8.50;;;;;;;1.94;100.00;95536.13;5030066;28;20222;-80
2022/12/03 00:34:07;;;;;;;59.53;10.90;;;;;;;1.91;100.00;95531.16;5013358;28;20222;-80
2022/12/03 00:36:32;;;;;;;41.50;9.97;;;;;;;1.94;100.00;95525.88;4996423;28;20218;-80
2022/12/03 00:38:57;;;;;;;94.30;13.40;;;;;;;1.91;100.00;95517.53;5013225;28;20179;-80
2022/12/03 00:41:23;;;;;;;11.10;8.10;;;;;;;1.98;100.00;95527.31;5029565;28;20281;-79
2022/12/03 00:43:48;;;;;;;12.87;8.70;;;;;;;1.98;100.00;95527.31;5013525;28;20265;-80
2022/12/03 00:46:16;;;;;;;80.00;12.77;;;;;;;1.76;100.00;95526.16;5029679;28;20191;-79
2022/12/03 00:48:42;;;;;;;18.47;10.87;;;;;;;1.88;100.00;95520.28;4996950;28;20622;-80
2022/12/03 00:51:07;;;;;;;37.27;11.97;;;;;;;1.93;100.00;95521.63;5041753;28;20187;-79
2022/12/03 00:53:32;;;;;;;48.00;11.70;;;;;;;1.94;100.00;95519.91;4996431;28;20257;-79
2022/12/03 00:55:57;;;;;;;33.13;11.73;;;;;;;1.94;100.00;95523.31;5003334;28;20190;-79
2022/12/03 00:58:23;;;;;;;81.30;13.73;;;;;;;1.92;100.00;95524.28;5002995;28;20670;-79
2022/12/03 01:00:48;;;;;;;19.90;11.40;;;;;;;1.94;100.00;95520.75;4996817;28;20221;-79
2022/12/03 01:03:13;;;;;;;190.27;19.77;;;;;;;1.85;100.00;95523.84;5030090;28;20202;-79
2022/12/03 01:05:38;;;;;;;155.43;19.37;;;;;;;1.79;100.00;95519.13;5029345;28;20187;-78
2022/12/03 01:08:04;;;;;;;21.63;13.23;;;;;;;1.90;100.00;95528.69;5012706;28;20285;-79
2022/12/03 01:10:29;;;;;;;61.40;17.03;;;;;;;1.90;100.00;95524.41;5029882;28;20222;-78
2022/12/03 01:12:55;;;;;;;46.00;15.77;;;;;;;1.81;100.00;95532.66;4994459;28;20289;-78
2022/12/03 01:15:20;;;;;;;113.47;21.20;;;;;;;1.83;100.00;95525.69;5030999;28;20187;-79
2022/12/03 01:17:45;;;;;;;29.77;17.00;;;;;;;1.95;100.00;95527.50;5018278;28;20187;-80
2022/12/03 01:20:13;;;;;;;32.63;18.63;;;;;;;1.83;100.00;95528.25;5017775;28;20210;-79
2022/12/03 01:22:38;;;;;;;32.10;18.87;;;;;;;1.78;100.00;95534.59;5017769;28;20662;-79
2022/12/03 01:25:03;;;;;;;33.93;17.63;;;;;;;1.86;100.00;95535.75;4999920;28;20209;-79
2022/12/03 01:27:29;;;;;;;32.10;18.10;;;;;;;1.91;100.00;95538.03;5033309;28;20211;-79
2022/12/03 01:29:54;;;;;;;33.10;19.80;;;;;;;1.93;100.00;95539.56;5033362;28;20282;-78
2022/12/03 01:32:19;;;;;;;31.80;18.70;;;;;;;1.88;99.70;95536.47;5016961;28;20179;-79
2022/12/03 01:34:53;;;;;;;30.90;18.67;;;;;;;1.97;100.00;95538.47;5016458;28;20841;-79
2022/12/03 01:37:20;;;;;;;30.23;19.50;;;;;;;1.91;100.00;95538.03;5013754;28;20179;-79
2022/12/03 01:39:46;;;;;;;31.53;19.20;;;;;;;1.94;100.00;95541.22;5017309;28;20199;-80
2022/12/03 01:42:16;;;;;;;40.63;22.17;;;;;;;1.80;100.00;95543.00;5016372;28;20237;-80
2022/12/03 01:44:41;;;;;;;35.77;21.13;;;;;;;1.88;100.00;95541.59;5032740;28;20215;-79
2022/12/03 01:47:12;;;;;;;36.13;22.60;;;;;;;1.90;100.00;95536.38;5016497;28;20344;-80
2022/12/03 01:49:48;;;;;;;41.00;23.60;;;;;;;1.86;99.68;95537.50;5032995;28;20187;-81
2022/12/03 01:52:19;;;;;;;38.47;22.30;;;;;;;1.92;99.85;95543.03;5000005;28;20206;-80
2022/12/03 01:55:06;;;;;;;37.53;21.50;;;;;;;1.90;99.68;95537.19;4999648;28;20215;-78
2022/12/03 01:57:40;;;;;;;37.40;21.27;;;;;;;1.91;99.31;95541.41;5016954;28;20194;-79
2022/12/03 02:00:10;;;;;;;36.30;21.50;;;;;;;1.76;99.32;95541.53;5033399;28;20194;-80
2022/12/03 02:02:35;;;;;;;36.43;21.97;;;;;;;1.87;99.85;95539.97;4999934;28;20567;-79
2022/12/03 02:05:08;;;;;;;37.80;22.73;;;;;;;1.90;99.26;95539.75;4999174;28;20211;-79
2022/12/03 02:07:33;;;;;;;36.80;21.90;;;;;;;1.86;98.65;95540.06;5000321;28;20207;-80
2022/12/03 02:10:00;;;;;;;40.03;22.50;;;;;;;1.88;98.81;95543.34;4999808;28;20575;-79
2022/12/03 02:12:29;;;;;;;37.07;22.37;;;;;;;1.77;99.71;95544.00;5012128;28;20204;-80
2022/12/03 02:14:55;;;;;;;39.57;22.40;;;;;;;1.82;99.07;95539.41;5030949;28;20530;-79
2022/12/03 02:17:20;;;;;;;37.20;21.33;;;;;;;1.82;98.63;95541.97;5016549;28;20194;-80
2022/12/03 02:19:46;;;;;;;36.57;21.80;;;;;;;1.76;97.47;95537.22;5016178;28;20253;-80
2022/12/03 02:22:50;;;;;;;34.03;20.53;;;;;;;1.80;98.69;95540.44;5016108;28;20233;-80
2022/12/03 02:25:18;;;;;;;36.30;20.33;;;;;;;1.80;98.32;95537.88;5017107;28;20647;-79
2022/12/03 02:27:44;;;;;;;36.73;21.47;;;;;;;1.82;98.24;95541.16;5017292;28;20214;-80
2022/12/03 02:30:12;;;;;;;33.57;19.77;;;;;;;1.75;97.72;95538.13;4999655;28;20187;-79
2022/12/03 02:32:38;;;;;;;37.83;21.33;;;;;;;1.76;98.05;95541.53;5016159;28;20210;-80
2022/12/03 02:35:04;;;;;;;35.67;21.03;;;;;;;1.74;98.11;95531.38;5015817;28;20659;-80
2022/12/03 02:37:31;;;;;;;39.90;21.73;;;;;;;1.59;98.80;95535.72;5016374;28;20194;-79
2022/12/03 02:39:59;;;;;;;39.23;21.47;;;;;;;1.70;98.10;95532.50;5016790;28;20230;-79
2022/12/03 02:42:34;;;;;;;35.63;21.20;;;;;;;1.66;97.69;95528.47;5016945;28;20195;-80
2022/12/03 02:45:02;;;;;;;35.70;21.83;;;;;;;1.61;98.15;95531.31;5030644;28;20720;-80
2022/12/03 02:47:28;;;;;;;38.73;21.57;;;;;;;1.62;98.75;95529.59;5032586;28;20289;-79
2022/12/03 02:49:54;;;;;;;40.20;22.20;;;;;;;1.60;98.29;95528.88;4999989;28;20258;-80
2022/12/03 02:52:19;;;;;;;33.30;20.43;;;;;;;1.56;97.72;95530.75;5016975;28;20653;-80
2022/12/03 02:54:45;;;;;;;33.37;19.17;;;;;;;1.49;98.40;95541.47;5015384;28;20207;-80
2022/12/03 02:57:10;;;;;;;34.43;20.87;;;;;;;1.51;98.29;95542.22;5000010;28;20210;-79
2022/12/03 02:59:36;;;;;;;33.77;19.63;;;;;;;1.41;98.28;95540.22;5032525;28;20195;-78
2022/12/03 03:02:01;;;;;;;37.93;20.90;;;;;;;1.37;98.85;95536.19;5032836;28;20211;-79
2022/12/03 03:04:26;;;;;;;36.90;20.93;;;;;;;1.37;98.34;95548.16;5031829;28;20247;-78
2022/12/03 03:06:52;;;;;;;41.70;22.60;;;;;;;1.27;98.50;95540.22;5015736;28;20187;-80
2022/12/03 03:09:18;;;;;;;40.73;21.63;;;;;;;1.25;98.88;95541.22;5015791;28;20230;-79
2022/12/03 03:11:43;;;;;;;38.27;20.90;;;;;;;1.25;99.60;95544.59;4999707;28;20660;-79
2022/12/03 03:14:08;;;;;;;38.40;21.97;;;;;;;1.33;98.38;95539.84;5030685;28;20211;-80
2022/12/03 03:16:34;;;;;;;41.27;22.87;;;;;;;1.40;98.90;95535.16;5031200;28;20187;-79
2022/12/03 03:19:00;;;;;;;39.83;22.07;;;;;;;1.37;98.84;95541.28;5028303;28;20190;-79
2022/12/03 03:21:25;;;;;;;41.87;22.87;;;;;;;1.44;99.09;95540.94;5031957;28;20194;-79
2022/12/03 03:23:51;;;;;;;38.67;22.07;;;;;;;1.45;99.48;95538.28;4999083;28;20215;-79
2022/12/03 03:26:16;;;;;;;37.50;21.90;;;;;;;1.46;98.66;95544.22;5014836;28;20206;-79
2022/12/03 03:28:44;;;;;;;41.37;21.77;;;;;;;1.56;99.00;95551.25;5015095;28;20687;-79
2022/12/03 03:31:11;;;;;;;40.57;22.50;;;;;;;1.53;98.60;95543.75;5035651;28;20191;-79
2022/12/03 03:33:38;;;;;;;37.30;21.73;;;;;;;1.60;98.87;95532.25;5050980;28;20203;-79
2022/12/03 03:36:04;;;;;;;41.07;21.53;;;;;;;1.55;99.26;95534.25;5052170;28;20164;-79
2022/12/03 03:38:30;;;;;;;36.97;20.83;;;;;;;1.58;98.38;95534.03;5017411;28;20194;-80
2022/12/03 03:40:57;;;;;;;37.43;20.77;;;;;;;1.64;98.90;95531.13;5021551;28;20643;-80
2022/12/03 03:43:23;;;;;;;39.30;21.90;;;;;;;1.60;98.13;95531.41;5001017;28;20309;-80
2022/12/03 03:45:48;;;;;;;36.37;20.67;;;;;;;1.65;97.94;95526.81;5002314;28;20195;-80
2022/12/03 03:48:14;;;;;;;39.57;20.27;;;;;;;1.66;98.48;95526.72;5031742;28;20218;-79
2022/12/03 03:50:40;;;;;;;37.13;21.57;;;;;;;1.64;98.46;95528.56;5031844;28;20183;-79
2022/12/03 03:53:05;;;;;;;40.23;21.07;;;;;;;1.67;98.37;95532.66;5032436;28;20706;-79
2022/12/03 03:55:31;;;;;;;39.57;21.90;;;;;;;1.59;98.63;95529.75;5033244;28;20187;-80
2022/12/03 03:57:56;;;;;;;40.50;22.20;;;;;;;1.62;99.27;95524.47;5014840;28;20218;-80
2022/12/03 04:00:22;;;;;;;44.33;22.33;;;;;;;1.66;99.05;95526.72;4998030;28;20191;-79
2022/12/03 04:02:47;;;;;;;41.00;22.23;;;;;;;1.70;98.30;95522.25;5014305;28;20195;-79
2022/12/03 04:05:18;;;;;;;37.40;21.27;;;;;;;1.74;99.09;95526.25;4997487;28;20217;-80
2022/12/03 04:07:43;;;;;;;38.80;21.13;;;;;;;1.79;98.68;95526.00;5030815;28;20215;-79
2022/12/03 04:12:56;;;;;;;35.63;20.97;;;;;;;1.73;99.07;95514.38;5015239;28;20189;-80
2022/12/03 04:15:21;;;;;;;36.73;21.37;;;;;;;1.75;98.71;95520.22;5031536;28;20187;-79
2022/12/03 04:18:41;;;;;;;40.93;22.57;;;;;;;1.72;99.27;95515.28;5015764;28;20233;-80
2022/12/03 04:20:38;;;;;;;37.03;20.57;;;;;;;1.79;99.24;95511.44;5015176;28;20277;-79
2022/12/03 04:23:04;;;;;;;40.80;21.57;;;;;;;1.74;99.16;95510.06;5031990;28;20214;-80
2022/12/03 04:30:57;;;;;;;38.83;20.87;;;;;;;1.74;98.99;95513.47;5016526;28;20270;-80
2022/12/03 04:36:06;;;;;;;43.60;20.90;;;;;;;1.68;99.88;95508.75;5015308;28;20244;-80
2022/12/03 04:38:32;;;;;;;39.40;20.57;;;;;;;1.72;100.00;95512.75;4998324;28;20266;-80
2022/12/03 04:41:00;;;;;;;38.30;21.13;;;;;;;1.78;99.67;95511.53;5030517;28;20567;-80
2022/12/03 04:43:31;;;;;;;38.33;21.30;;;;;;;1.70;100.00;95510.28;5014405;28;20227;-80
2022/12/03 04:45:56;;;;;;;37.17;20.87;;;;;;;1.84;100.00;95511.97;5013754;28;20189;-79
2022/12/03 04:48:22;;;;;;;41.60;21.57;;;;;;;1.84;99.38;95506.84;5014103;28;20625;-79
2022/12/03 04:50:47;;;;;;;41.90;22.10;;;;;;;1.88;99.57;95515.19;4997114;28;20194;-81
2022/12/03 04:53:12;;;;;;;32.50;20.53;;;;;;;1.90;99.44;95506.47;5014251;28;20246;-79
2022/12/03 04:55:38;;;;;;;42.93;22.00;;;;;;;1.88;99.34;95508.31;5012870;28;20189;-79
2022/12/03 04:58:03;;;;;;;38.20;21.13;;;;;;;1.84;99.75;95509.41;5013915;28;20182;-80
2022/12/03 05:00:28;;;;;;;40.10;21.80;;;;;;;1.85;99.28;95513.59;4997345;28;20674;-80
2022/12/03 05:02:54;;;;;;;38.57;21.07;;;;;;;1.87;99.63;95499.00;5030636;28;20241;-80
2022/12/03 05:05:19;;;;;;;34.87;20.53;;;;;;;1.94;99.20;95502.81;5029876;28;20179;-79
2022/12/03 05:07:44;;;;;;;34.53;20.67;;;;;;;1.89;99.41;95502.28;5030293;28;20213;-78
2022/12/03 05:10:10;;;;;;;41.57;21.97;;;;;;;1.86;98.86;95496.53;5013953;28;20734;-80
2022/12/03 05:12:36;;;;;;;42.50;21.60;;;;;;;1.87;99.28;95499.00;4996334;28;20645;-80
2022/12/03 05:15:02;;;;;;;35.60;21.23;;;;;;;1.84;99.40;95506.03;5029226;28;20218;-80
2022/12/03 05:17:27;;;;;;;38.20;21.73;;;;;;;1.93;99.31;95502.88;5013661;28;20195;-80
2022/12/03 05:22:36;;;;;;;70.03;22.03;;;;;;;1.78;100.00;95499.56;5013079;28;20246;-79
2022/12/03 05:25:02;;;;;;;49.67;22.07;;;;;;;1.81;100.00;95491.69;4996665;28;20679;-79
2022/12/03 05:27:27;;;;;;;39.63;22.50;;;;;;;1.82;100.00;95489.94;4996974;28;20215;-79
2022/12/03 05:29:53;;;;;;;47.20;20.73;;;;;;;1.84;100.00;95477.84;4997843;28;20199;-80
2022/12/03 05:32:18;;;;;;;34.33;20.27;;;;;;;1.77;100.00;95477.44;5030698;28;20202;-78
2022/12/03 05:34:44;;;;;;;54.60;21.87;;;;;;;1.75;100.00;95476.69;5029205;28;20219;-79
2022/12/03 05:37:09;;;;;;;41.40;20.10;;;;;;;1.84;100.00;95472.75;5013682;28;20643;-79
2022/12/03 05:39:34;;;;;;;37.33;21.17;;;;;;;1.81;100.00;95476.31;5030734;28;20230;-80
2022/12/03 05:44:43;;;;;;;38.70;20.00;;;;;;;1.86;100.00;95483.72;5013084;28;20250;-79
2022/12/03 05:47:09;;;;;;;39.83;22.23;;;;;;;1.92;100.00;95496.94;5029757;28;20643;-79
2022/12/03 05:49:34;;;;;;;37.40;21.47;;;;;;;1.95;99.28;95486.53;5030276;28;20191;-79
2022/12/03 05:51:59;;;;;;;42.90;22.77;;;;;;;1.88;100.00;95489.56;5030202;28;20194;-78
2022/12/03 05:54:25;;;;;;;38.73;21.33;;;;;;;1.88;100.00;95490.38;5029735;28;20612;-78
2022/12/03 05:56:50;;;;;;;38.90;22.57;;;;;;;1.95;99.74;95491.66;5012965;28;20221;-79
2022/12/03 05:59:15;;;;;;;38.10;22.27;;;;;;;1.84;100.00;95488.91;5030181;28;20191;-79
2022/12/03 06:01:40;;;;;;;41.33;21.93;;;;;;;1.86;100.00;95489.66;5015358;28;20187;-79
2022/12/03 06:04:06;;;;;;;39.40;20.87;;;;;;;1.79;100.00;95490.16;5016541;28;20211;-79
2022/12/03 06:06:31;;;;;;;39.80;21.90;;;;;;;1.89;100.00;95492.03;5000360;28;20191;-79
2022/12/03 06:08:56;;;;;;;39.37;21.67;;;;;;;1.88;99.79;95492.94;5018892;28;20713;-79
2022/12/03 06:11:22;;;;;;;38.27;22.07;;;;;;;1.93;100.00;95477.28;5032915;28;20187;-79
2022/12/03 06:13:47;;;;;;;38.27;21.93;;;;;;;1.87;99.42;95475.94;5016118;28;20265;-81
2022/12/03 06:16:12;;;;;;;39.67;21.47;;;;;;;1.89;99.87;95476.66;5018212;28;20195;-81
2022/12/03 06:18:38;;;;;;;44.13;22.40;;;;;;;1.95;99.41;95481.41;5016490;28;20214;-81
2022/12/03 06:21:03;;;;;;;36.80;22.03;;;;;;;1.93;99.66;95480.66;5000348;28;20274;-80
2022/12/03 06:23:28;;;;;;;38.37;20.80;;;;;;;1.98;99.31;95481.19;5000380;28;20257;-79
2022/12/03 06:25:54;;;;;;;39.40;22.40;;;;;;;1.97;99.77;95489.81;4999277;28;20187;-80
2022/12/03 06:28:19;;;;;;;43.23;22.60;;;;;;;1.94;99.48;95499.41;5033094;28;20607;-81
2022/12/03 06:30:44;;;;;;;38.33;22.27;;;;;;;1.90;99.83;95509.03;5033063;28;20293;-80
2022/12/03 06:33:09;;;;;;;37.67;21.60;;;;;;;1.99;99.14;95510.19;5018367;28;20210;-81
2022/12/03 06:35:35;;;;;;;37.70;21.03;;;;;;;1.96;100.00;95512.97;5032714;28;20214;-82
2022/12/03 06:38:00;;;;;;;36.73;20.77;;;;;;;1.91;99.88;95508.13;5016335;28;20190;-82
2022/12/03 06:40:25;;;;;;;39.60;21.00;;;;;;;1.96;100.00;95506.09;4999733;28;20193;-81
2022/12/03 06:42:51;;;;;;;37.70;21.87;;;;;;;1.94;99.08;95505.38;5032187;28;20551;-82
2022/12/03 06:45:16;;;;;;;38.43;22.83;;;;;;;1.93;98.68;95508.00;4999288;28;20197;-82
2022/12/03 06:47:41;;;;;;;39.47;21.27;;;;;;;1.85;99.87;95500.81;5015982;28;20617;-81
2022/12/03 06:50:07;;;;;;;38.97;22.13;;;;;;;1.85;100.00;95494.84;5016053;28;20206;-81
2022/12/03 06:52:33;;;;;;;35.40;19.90;;;;;;;1.95;99.03;95504.47;4999655;28;20191;-81
2022/12/03 06:54:58;;;;;;;41.83;22.43;;;;;;;1.97;99.31;95504.34;5031815;28;20238;-81
2022/12/03 06:57:23;;;;;;;37.43;20.90;;;;;;;1.93;99.26;95503.72;5018022;28;20203;-81
2022/12/03 06:59:49;;;;;;;40.80;20.90;;;;;;;1.95;99.49;95511.31;5015939;28;20191;-81
2022/12/03 07:02:14;;;;;;;39.57;22.07;;;;;;;1.99;99.45;95497.38;5014399;28;20853;-82
2022/12/03 07:04:39;;;;;;;39.63;22.03;;;;;;;1.94;99.86;95512.22;5013256;28;20249;-82
2022/12/03 07:07:04;;;;;;;38.73;21.47;;;;;;;1.86;100.00;95506.78;4997684;28;20191;-82
2022/12/03 07:09:30;;;;;;;42.43;23.20;;;;;;;1.89;100.00;95497.16;5014230;28;20222;-82
2022/12/03 07:11:55;;;;;;;38.83;21.97;;;;;;;1.94;100.00;95500.25;4997470;28;20699;-81
2022/12/03 07:14:20;;;;;;;40.83;21.87;;;;;;;1.75;100.00;95493.78;5014835;28;20265;-81
2022/12/03 07:16:48;;;;;;;38.80;21.33;;;;;;;1.77;100.00;95497.94;5030256;28;20187;-80
2022/12/03 07:19:14;;;;;;;44.00;21.77;;;;;;;1.79;100.00;95501.22;5030707;28;20651;-82
2022/12/03 07:21:39;;;;;;;54.67;22.60;;;;;;;1.84;100.00;95494.03;5030466;28;20245;-82
2022/12/03 07:24:05;;;;;;;41.70;22.93;;;;;;;1.84;100.00;95503.47;5030719;28;20715;-81
2022/12/03 07:26:30;;;;;;;50.27;23.10;;;;;;;1.78;100.00;95499.56;5013158;28;20183;-81
2022/12/03 07:28:56;;;;;;;41.87;23.23;;;;;;;1.81;100.00;95501.94;5029574;28;20265;-81
2022/12/03 07:31:21;;;;;;;50.07;26.77;;;;;;;1.72;100.00;95505.06;5030418;28;20670;-81
2022/12/03 07:33:46;;;;;;;45.07;22.63;;;;;;;1.72;100.00;95496.56;5030111;28;20215;-81
2022/12/03 07:36:11;;;;;;;43.83;22.70;;;;;;;1.83;100.00;95494.13;4996629;28;20194;-81
2022/12/03 07:38:37;;;;;;;42.97;22.47;;;;;;;1.92;100.00;95494.38;5030360;28;20277;-82
2022/12/03 07:41:02;;;;;;;48.83;28.20;;;;;;;1.92;100.00;95504.63;4997759;28;20183;-82
2022/12/03 07:43:28;;;;;;;39.90;21.87;;;;;;;1.81;100.00;95501.94;4997169;28;20222;-81
2022/12/03 07:45:53;;;;;;;40.83;21.97;;;;;;;1.87;100.00;95505.84;5029829;28;20183;-82
2022/12/03 07:48:18;;;;;;;46.27;23.50;;;;;;;1.89;100.00;95509.94;4997757;28;20244;-82
2022/12/03 07:50:43;;;;;;;43.10;23.27;;;;;;;1.72;100.00;95507.63;5031582;28;20198;-81
2022/12/03 07:53:09;;;;;;;38.70;22.43;;;;;;;1.84;100.00;95499.16;5048927;28;20222;-81
2022/12/03 07:55:34;;;;;;;40.90;22.43;;;;;;;1.92;100.00;95503.81;5050169;28;20263;-79
2022/12/03 07:57:59;;;;;;;42.23;22.23;;;;;;;1.75;100.00;95504.03;5051662;28;20183;-81
2022/12/03 08:00:25;;;;;;;41.70;23.23;;;;;;;1.80;100.00;95505.41;5037670;28;20191;-82
2022/12/03 08:02:50;;;;;;;41.37;22.77;;;;;;;1.92;100.00;95486.69;5032946;28;20198;-83
2022/12/03 08:05:16;;;;;;;44.10;22.53;;;;;;;1.92;100.00;95491.00;5033014;28;20264;-82
2022/12/03 08:07:41;;;;;;;44.03;23.10;;;;;;;1.94;100.00;95489.16;5016510;28;20207;-82
2022/12/03 08:10:06;;;;;;;45.23;22.77;;;;;;;1.98;100.00;95501.69;5015685;28;20199;-82
2022/12/03 08:12:49;;;;;;;42.00;21.53;;;;;;;1.99;99.91;95497.38;4973971;28;20240;-80
2022/12/03 08:15:17;;;;;;;40.60;21.80;;;;;;;1.96;100.00;95498.41;5031261;28;20186;-78
2022/12/03 08:17:44;;;;;;;36.37;21.73;;;;;;;1.99;100.00;95502.50;5032221;28;20194;-82
2022/12/03 08:20:21;;;;;;;38.67;21.60;;;;;;;2.09;100.00;95497.63;5032366;28;20191;-82
2022/12/03 08:22:48;;;;;;;43.80;24.17;;;;;;;1.99;98.80;95492.28;5014262;28;20195;-82
2022/12/03 08:25:25;;;;;;;39.53;22.43;;;;;;;1.97;99.57;95494.09;4997068;28;20262;-82
2022/12/03 08:27:53;;;;;;;42.33;22.20;;;;;;;1.91;100.00;95502.16;4997892;28;20218;-82
2022/12/03 08:30:19;;;;;;;37.90;22.30;;;;;;;2.03;99.65;95509.06;5031203;28;20270;-83
2022/12/03 08:32:44;;;;;;;44.67;25.00;;;;;;;1.93;99.39;95495.19;5031770;28;20226;-81
2022/12/03 08:35:20;;;;;;;45.87;23.33;;;;;;;1.95;99.66;95501.91;4997792;28;20237;-79
2022/12/03 08:37:45;;;;;;;40.10;23.00;;;;;;;1.91;99.75;95507.28;4998216;28;20182;-81
2022/12/03 08:40:21;;;;;;;39.63;22.53;;;;;;;1.79;100.00;95498.66;5030442;28;20202;-81
2022/12/03 08:42:46;;;;;;;42.23;23.67;;;;;;;1.88;100.00;95490.38;5013075;28;20225;-80
2022/12/03 08:45:38;;;;;;;44.63;23.47;;;;;;;2.01;100.00;95494.72;4996241;28;20211;-80
2022/12/03 08:48:31;;;;;;;44.70;24.10;;;;;;;2.01;100.00;95492.16;5013051;28;20215;-80
2022/12/03 08:50:59;;;;;;;47.03;25.00;;;;;;;2.13;100.00;95493.97;5012801;28;20192;-81
2022/12/03 08:53:32;;;;;;;45.57;23.83;;;;;;;1.98;99.83;95485.50;4997322;28;20291;-80
2022/12/03 08:56:20;;;;;;;41.60;23.53;;;;;;;2.03;100.00;95482.63;4995469;28;20187;-80
2022/12/03 08:58:54;;;;;;;47.30;24.00;;;;;;;2.02;100.00;95486.13;4995998;28;20184;-80
2022/12/03 09:01:34;;;;;;;50.17;23.53;;;;;;;2.13;99.35;95484.53;4996074;28;20199;-80
2022/12/03 09:04:21;;;;;;;52.87;27.77;;;;;;;2.16;99.87;95488.63;5021533;28;20215;-80
2022/12/03 09:06:47;;;;;;;44.77;22.27;;;;;;;2.04;100.00;95489.44;5012013;28;20187;-81
2022/12/03 09:09:12;;;;;;;44.80;24.87;;;;;;;2.13;99.40;95486.28;5012053;28;20217;-81
2022/12/03 09:11:38;;;;;;;43.37;23.83;;;;;;;2.17;98.88;95490.28;5028832;28;20191;-81
2022/12/03 09:14:03;;;;;;;45.83;23.83;;;;;;;2.17;99.13;95488.53;5010388;28;20218;-81
2022/12/03 09:16:28;;;;;;;47.93;24.53;;;;;;;2.03;100.00;95487.75;5011705;28;20241;-81
2022/12/03 09:18:54;;;;;;;45.67;23.87;;;;;;;2.02;100.00;95486.94;4995798;28;20306;-79
2022/12/03 09:21:19;;;;;;;64.87;25.27;;;;;;;1.90;100.00;95491.09;4995252;28;20286;-80
2022/12/03 09:23:44;;;;;;;49.53;24.93;;;;;;;2.01;100.00;95481.91;5027666;28;20218;-79
2022/12/03 09:26:10;;;;;;;43.77;22.80;;;;;;;2.10;99.95;95484.72;5027831;28;20289;-80
2022/12/03 09:28:35;;;;;;;46.37;23.87;;;;;;;2.12;99.93;95487.16;5028459;28;20253;-80
2022/12/03 09:31:00;;;;;;;45.83;22.90;;;;;;;2.16;99.95;95493.75;5028094;28;20202;-80
2022/12/03 09:33:26;;;;;;;47.30;23.27;;;;;;;2.20;99.84;95498.56;5028339;28;20606;-80
2022/12/03 09:35:51;;;;;;;44.43;23.30;;;;;;;2.12;99.81;95492.28;4995682;28;20199;-81
2022/12/03 09:38:16;;;;;;;42.93;22.40;;;;;;;2.23;99.53;95497.59;4999755;28;20676;-81
2022/12/03 09:40:41;;;;;;;48.27;23.90;;;;;;;2.26;99.41;95502.50;5000341;28;20250;-80
2022/12/03 09:43:07;;;;;;;47.40;24.53;;;;;;;2.28;99.22;95500.66;5031215;28;20285;-81
2022/12/03 09:45:32;;;;;;;46.13;23.87;;;;;;;2.34;99.02;95492.56;5015010;28;20190;-81
2022/12/03 09:48:01;;;;;;;48.57;25.40;;;;;;;2.44;99.08;95493.63;4998610;28;20210;-79
2022/12/03 09:50:27;;;;;;;47.23;23.50;;;;;;;2.27;99.33;95486.19;5016063;28;20191;-80
2022/12/03 09:52:54;;;;;;;50.60;24.17;;;;;;;2.31;98.79;95477.41;5015268;28;20191;-80
2022/12/03 09:55:25;;;;;;;54.30;25.13;;;;;;;2.18;99.94;95467.13;4998917;28;20215;-80
2022/12/03 09:57:51;;;;;;;47.13;23.40;;;;;;;2.21;99.33;95455.88;5015684;28;20265;-79
2022/12/03 10:00:22;;;;;;;41.17;23.27;;;;;;;2.28;98.52;95457.09;5028602;28;20258;-80
2022/12/03 10:02:50;;;;;;;49.37;24.43;;;;;;;2.24;99.39;95450.53;5029745;28;20194;-80
2022/12/03 10:05:18;;;;;;;53.80;25.63;;;;;;;2.24;100.00;95445.41;4998577;28;20195;-81
2022/12/03 10:07:43;;;;;;;50.70;25.57;;;;;;;2.21;100.00;95443.06;5012506;28;20217;-80
2022/12/03 10:10:18;;;;;;;52.13;26.23;;;;;;;2.27;100.00;95447.75;5015984;28;20198;-80
2022/12/03 10:12:43;;;;;;;51.87;25.60;;;;;;;2.42;99.06;95458.78;5014010;28;20195;-80
2022/12/03 10:15:13;;;;;;;55.03;25.80;;;;;;;2.43;99.59;95453.53;5031924;28;20342;-80
2022/12/03 10:17:38;;;;;;;51.50;25.67;;;;;;;2.38;99.65;95465.81;5015512;28;20274;-80
2022/12/03 10:20:04;;;;;;;51.80;24.53;;;;;;;2.47;99.82;95456.72;5031956;28;20281;-80
2022/12/03 10:22:35;;;;;;;53.13;25.07;;;;;;;2.43;98.94;95453.53;5031711;28;20206;-80
2022/12/03 10:25:20;;;;;;;51.77;26.60;;;;;;;2.61;98.47;95460.94;4999141;28;20223;-80
2022/12/03 10:27:58;;;;;;;49.10;24.77;;;;;;;2.51;98.42;95455.59;4998084;28;20634;-80
2022/12/03 10:30:25;;;;;;;48.77;24.87;;;;;;;2.44;99.00;95452.63;5015239;28;20187;-80
2022/12/03 10:32:51;;;;;;;44.40;24.33;;;;;;;2.63;98.25;95456.53;4998634;28;20219;-80
2022/12/03 10:35:22;;;;;;;46.70;23.63;;;;;;;2.53;97.82;95454.56;5015321;28;20210;-79
2022/12/03 10:37:55;;;;;;;46.90;22.97;;;;;;;2.46;98.70;95455.88;5014057;28;20613;-80
2022/12/03 10:40:27;;;;;;;42.43;22.27;;;;;;;2.33;98.49;95451.69;5019145;28;20234;-80
2022/12/03 10:43:11;;;;;;;43.77;23.73;;;;;;;2.43;98.15;95450.97;4994647;28;20233;-80
2022/12/03 10:45:37;;;;;;;43.07;22.73;;;;;;;2.35;98.11;95442.16;5014413;28;20199;-80
2022/12/03 10:48:14;;;;;;;44.13;23.87;;;;;;;2.43;96.50;95448.41;4998451;28;20311;-80
2022/12/03 10:50:52;;;;;;;40.60;22.90;;;;;;;2.46;96.74;95445.63;5031096;28;20194;-80
2022/12/03 10:53:20;;;;;;;40.30;21.57;;;;;;;2.50;95.76;95444.53;5015055;28;20630;-80
2022/12/03 10:55:47;;;;;;;40.97;21.10;;;;;;;2.64;95.71;95441.03;5014817;28;20270;-80
2022/12/03 10:58:18;;;;;;;44.03;23.20;;;;;;;2.62;95.96;95435.19;5015019;28;20211;-79
2022/12/03 11:00:43;;;;;;;40.87;21.83;;;;;;;2.52;95.30;95431.59;5017021;28;20252;-80
2022/12/03 11:03:34;;;;;;;41.43;21.63;;;;;;;2.53;96.34;95431.50;4998643;28;20658;-79
2022/12/03 11:06:00;;;;;;;36.00;20.43;;;;;;;2.57;95.86;95427.00;5012999;28;20196;-80
2022/12/03 11:08:28;;;;;;;37.37;20.97;;;;;;;2.61;95.18;95422.50;5014670;28;20257;-81
2022/12/03 11:11:15;;;;;;;36.97;21.87;;;;;;;2.57;95.06;95426.19;5030953;28;20541;-80
2022/12/03 11:13:40;;;;;;;36.70;19.60;;;;;;;2.51;95.20;95414.59;5011272;28;20206;-80
2022/12/03 11:16:07;;;;;;;40.43;20.53;;;;;;;2.53;95.31;95410.19;5015799;28;20214;-79
2022/12/03 11:18:35;;;;;;;40.17;20.90;;;;;;;2.60;94.77;95415.72;4997956;28;20229;-79
2022/12/03 11:21:04;;;;;;;36.50;20.13;;;;;;;2.53;95.25;95405.88;5024752;28;20191;-79
2022/12/03 11:23:45;;;;;;;39.20;21.07;;;;;;;2.53;95.19;95399.91;5013480;28;20203;-79
2022/12/03 11:26:14;;;;;;;40.43;20.67;;;;;;;2.58;93.41;95397.88;5029939;28;20187;-79
2022/12/03 11:28:45;;;;;;;39.93;20.50;;;;;;;2.77;92.73;95408.53;5030065;28;20260;-79
2022/12/03 11:31:46;;;;;;;39.70;20.10;;;;;;;2.69;92.91;95407.41;5015268;28;20201;-80
2022/12/03 11:34:17;;;;;;;35.03;19.87;;;;;;;2.74;92.55;95407.91;4938240;29;20268;-80
2022/12/03 11:37:10;;;;;;;38.43;20.10;;;;;;;2.77;92.25;95403.41;4953697;29;20193;-81
2022/12/03 11:39:48;;;;;;;36.80;19.27;;;;;;;2.64;93.01;95399.19;4938594;29;20193;-80